Current Conditions
Clear
Conditions



Pressure
1014.92 (hPa) - 29.97 (inHG)
Visibility

0.6 (km) - 0.4 (miles)
   Temperature
-2  °C
28°F
-2  °C
Dewpoint
100  %
 Humidity
   Wind Speed
3  km/h
2  kts
2  mph
0.9  m/s
   Wind Direction
Calm
Due North
   Airport Data
LSMM
Location Meiringen 6 km (3.73 mi)
Metar :LSMM 181920Z AUTO VRB02KT 0500NDV R10/0600N R28/0600N FZFG NCD M02/M02 Q1015 RMK
Mon 18th November 21:20 pm
   Raw Metar Info
Raw METAR is the most common format in the world for the transmission of observational weather data. It is highly standardized through the International Civil Aviation Organization (ICAO), which allows it to be understood throughout most of the world.
   API Info
Data Provided by
https://www.checkwx.com/weather/LSMM
   © Info
CSS/SVG/PHP scripts were developed by weather34.com for use in the weather34 template © 2015-2019

Guide Info provided by Metar-Wikipedia